createdAt,value
2018-07-25T00:00:28.223Z,26.60
2018-07-25T00:02:56.991Z,26.60
2018-07-25T00:05:25.689Z,26.70
2018-07-25T00:07:54.690Z,26.60
2018-07-25T00:10:28.091Z,26.60
2018-07-25T00:12:56.810Z,26.60
2018-07-25T00:15:26.748Z,26.60
2018-07-25T00:17:55.463Z,26.60
2018-07-25T00:20:24.135Z,26.50
2018-07-25T00:22:52.885Z,26.60
2018-07-25T00:25:22.325Z,26.50
2018-07-25T00:30:21.432Z,26.60
2018-07-25T00:35:18.653Z,26.70
2018-07-25T00:40:15.676Z,26.70
2018-07-25T00:42:44.410Z,26.60
2018-07-25T00:47:42.888Z,26.70
2018-07-25T00:50:16.545Z,26.70
2018-07-25T00:52:45.198Z,26.70
2018-07-25T00:57:42.929Z,26.70
2018-07-25T01:00:17.030Z,26.70
2018-07-25T01:02:47.118Z,26.70
2018-07-25T01:05:16.150Z,26.60
2018-07-25T01:07:45.449Z,26.60
2018-07-25T01:10:14.231Z,26.60
2018-07-25T01:12:43.615Z,26.60
2018-07-25T01:15:12.925Z,26.60
2018-07-25T01:17:43.060Z,26.50
2018-07-25T01:20:11.705Z,26.50
2018-07-25T01:25:09.499Z,26.40
2018-07-25T01:30:06.709Z,26.30
2018-07-25T01:32:35.465Z,26.20
2018-07-25T01:35:04.174Z,26.20
2018-07-25T01:37:34.067Z,26.20
2018-07-25T01:40:02.781Z,26.20
2018-07-25T01:42:32.021Z,26.20
2018-07-25T01:45:01.979Z,26.20
2018-07-25T01:47:31.469Z,26.00
2018-07-25T01:50:00.117Z,25.80
2018-07-25T01:52:29.543Z,25.60
2018-07-25T01:57:26.536Z,25.40
2018-07-25T01:59:55.240Z,25.30
2018-07-25T02:02:23.975Z,25.30
2018-07-25T02:04:53.639Z,25.20
2018-07-25T02:07:23.372Z,25.10
2018-07-25T02:09:56.498Z,25.10
2018-07-25T02:17:21.889Z,24.80
2018-07-25T02:19:50.940Z,24.80
2018-07-25T02:24:48.286Z,24.60
2018-07-25T02:27:17.548Z,24.50
2018-07-25T02:29:47.284Z,24.60
2018-07-25T02:32:15.964Z,24.60
2018-07-25T02:34:44.652Z,24.50
2018-07-25T02:37:14.170Z,24.60
2018-07-25T02:39:43.172Z,24.60
2018-07-25T02:42:12.140Z,24.60
2018-07-25T02:44:41.528Z,24.50
2018-07-25T02:47:10.907Z,24.50
2018-07-25T02:52:08.669Z,24.60
2018-07-25T02:54:37.321Z,24.60
2018-07-25T02:57:06.050Z,24.40
2018-07-25T02:59:34.723Z,24.40
2018-07-25T03:02:03.491Z,24.30
2018-07-25T03:04:33.007Z,24.20
2018-07-25T03:07:06.345Z,24.20
2018-07-25T03:09:35.055Z,24.20
2018-07-25T03:12:04.053Z,24.10
2018-07-25T03:14:32.798Z,24.00
2018-07-25T03:19:29.811Z,24.10
2018-07-25T03:21:59.260Z,24.10
2018-07-25T03:26:56.747Z,23.90
2018-07-25T03:29:25.448Z,23.80
2018-07-25T03:31:55.171Z,23.70
2018-07-25T03:34:23.926Z,23.60
2018-07-25T03:39:25.302Z,23.80
2018-07-25T03:41:53.979Z,23.90
2018-07-25T03:44:23.008Z,23.90
2018-07-25T03:46:51.642Z,23.90
2018-07-25T03:49:21.202Z,23.90
2018-07-25T03:51:49.998Z,24.00
2018-07-25T03:54:18.720Z,23.90
2018-07-25T03:56:47.432Z,23.80
2018-07-25T04:01:48.253Z,23.80
2018-07-25T04:04:16.955Z,23.80
2018-07-25T04:06:46.367Z,23.70
2018-07-25T04:09:15.519Z,23.60
2018-07-25T04:11:44.702Z,23.60
2018-07-25T04:14:13.450Z,23.60
2018-07-25T04:16:42.138Z,23.80
2018-07-25T04:19:12.052Z,23.90
2018-07-25T04:21:41.514Z,23.90
2018-07-25T04:24:11.415Z,23.80
2018-07-25T04:26:40.230Z,23.90
2018-07-25T04:29:10.527Z,23.90
2018-07-25T04:31:39.231Z,24.00
2018-07-25T04:34:08.232Z,24.00
2018-07-25T04:36:36.996Z,24.00
2018-07-25T04:39:09.874Z,24.00
2018-07-25T04:41:39.342Z,23.90
2018-07-25T04:44:08.025Z,24.00
2018-07-25T04:46:36.702Z,24.00
2018-07-25T04:49:13.959Z,24.00
2018-07-25T04:51:42.709Z,23.90
2018-07-25T04:56:41.409Z,23.90
2018-07-25T04:59:11.217Z,23.90
2018-07-25T05:01:39.973Z,23.90
2018-07-25T05:04:13.100Z,24.00
2018-07-25T05:09:11.888Z,24.10
2018-07-25T05:11:40.605Z,24.10
2018-07-25T05:14:09.953Z,24.20
2018-07-25T05:16:38.630Z,24.20
2018-07-25T05:19:07.992Z,24.20
2018-07-25T05:21:36.730Z,24.30
2018-07-25T05:24:05.969Z,24.40
2018-07-25T05:29:03.121Z,24.30
2018-07-25T05:31:36.534Z,24.50
2018-07-25T05:36:33.565Z,24.50
2018-07-25T05:39:02.227Z,24.50
2018-07-25T05:41:31.650Z,24.50
2018-07-25T05:44:04.872Z,24.50
2018-07-25T05:46:34.340Z,24.60
2018-07-25T05:49:03.236Z,24.60
2018-07-25T05:51:31.961Z,24.70
2018-07-25T05:54:04.828Z,24.70
2018-07-25T05:56:34.283Z,24.70
2018-07-25T05:59:02.995Z,24.70
2018-07-25T06:01:31.787Z,24.90
2018-07-25T06:04:01.090Z,24.90
2018-07-25T06:06:29.761Z,24.90
2018-07-25T06:08:58.489Z,25.00
2018-07-25T06:11:27.192Z,25.10
2018-07-25T06:13:56.038Z,25.20
2018-07-25T06:16:24.754Z,25.30
2018-07-25T06:18:53.543Z,25.40
2018-07-25T06:21:22.259Z,25.40
2018-07-25T06:26:20.248Z,25.60
2018-07-25T06:31:18.935Z,25.60
2018-07-25T06:33:48.169Z,25.70
2018-07-25T06:36:17.448Z,25.70
2018-07-25T06:41:18.859Z,25.90
2018-07-25T06:43:49.138Z,25.90
2018-07-25T06:46:18.472Z,25.90
2018-07-25T06:48:47.580Z,25.90
2018-07-25T06:51:16.786Z,26.10
2018-07-25T06:53:45.781Z,26.00
2018-07-25T06:56:14.528Z,26.00
2018-07-25T06:58:43.293Z,26.00
2018-07-25T07:01:12.714Z,26.00
2018-07-25T07:06:11.093Z,26.00
2018-07-25T07:08:39.724Z,25.90
2018-07-25T07:11:08.570Z,25.90
2018-07-25T07:13:37.281Z,25.90
2018-07-25T07:16:06.223Z,25.90
2018-07-25T07:23:34.205Z,26.00
2018-07-25T07:26:02.871Z,26.10
2018-07-25T07:28:32.236Z,26.20
2018-07-25T07:31:01.591Z,26.20
2018-07-25T07:33:30.515Z,26.00
2018-07-25T07:35:59.207Z,26.10
2018-07-25T07:38:28.069Z,25.90
2018-07-25T07:40:57.086Z,26.00
2018-07-25T07:43:25.932Z,26.10
2018-07-25T07:45:54.677Z,26.20
2018-07-25T07:48:23.396Z,26.20
2018-07-25T07:50:52.145Z,26.10
2018-07-25T07:53:21.550Z,26.20
2018-07-25T07:55:50.306Z,26.10
2018-07-25T07:58:18.976Z,26.10
2018-07-25T08:00:47.707Z,26.10
2018-07-25T08:03:17.069Z,26.00
2018-07-25T08:05:46.371Z,26.10
2018-07-25T08:08:15.039Z,26.00
2018-07-25T08:13:12.624Z,26.20
2018-07-25T08:15:41.825Z,26.10
2018-07-25T08:18:11.284Z,26.10
2018-07-25T08:20:41.835Z,26.20
2018-07-25T08:23:11.304Z,26.30
2018-07-25T08:25:40.093Z,26.40
2018-07-25T08:28:13.329Z,26.50
2018-07-25T08:33:12.157Z,26.70
2018-07-25T08:35:41.573Z,26.90
2018-07-25T08:38:10.720Z,26.90
2018-07-25T08:40:39.393Z,26.90
2018-07-25T08:43:08.117Z,26.90
2018-07-25T08:45:36.781Z,27.00
2018-07-25T08:48:05.770Z,27.00
2018-07-25T08:50:34.494Z,26.90
2018-07-25T08:53:03.249Z,26.90
2018-07-25T08:55:31.969Z,27.00
2018-07-25T08:58:01.421Z,27.10
2018-07-25T09:00:30.159Z,26.90
2018-07-25T09:02:59.049Z,26.90
2018-07-25T09:07:56.253Z,26.90
2018-07-25T09:10:25.001Z,27.00
2018-07-25T09:15:22.049Z,27.10
2018-07-25T09:17:50.710Z,27.10
2018-07-25T09:20:19.445Z,27.10
2018-07-25T09:22:49.016Z,27.20
2018-07-25T09:25:17.761Z,27.30
2018-07-25T09:27:46.370Z,27.40
2018-07-25T09:30:15.054Z,27.50
2018-07-25T09:32:43.744Z,27.60
2018-07-25T09:35:12.468Z,27.60
2018-07-25T09:40:11.894Z,27.70
2018-07-25T09:42:41.113Z,27.80
2018-07-25T09:45:15.058Z,27.90
2018-07-25T09:47:43.773Z,28.00
2018-07-25T09:50:12.528Z,28.00
2018-07-25T09:52:41.984Z,28.00
2018-07-25T09:55:16.336Z,28.00
2018-07-25T09:57:45.065Z,28.00
2018-07-25T10:00:17.948Z,28.10
2018-07-25T10:02:46.672Z,28.20
2018-07-25T10:05:15.358Z,28.20
2018-07-25T10:07:44.162Z,28.30
2018-07-25T10:10:12.864Z,28.30
2018-07-25T10:12:42.263Z,28.40
2018-07-25T10:15:15.658Z,28.40
2018-07-25T10:17:44.883Z,28.40
2018-07-25T10:20:13.647Z,28.50
2018-07-25T10:22:42.435Z,28.60
2018-07-25T10:25:15.629Z,28.70
2018-07-25T10:27:44.407Z,28.70
2018-07-25T10:30:13.135Z,28.60
2018-07-25T10:32:42.863Z,28.60
2018-07-25T10:37:39.892Z,28.70
2018-07-25T10:40:08.998Z,28.70
2018-07-25T10:42:37.656Z,28.80
2018-07-25T10:45:10.173Z,29.00
2018-07-25T10:47:40.421Z,29.10
2018-07-25T10:50:10.009Z,29.30
2018-07-25T10:52:39.190Z,29.10
2018-07-25T10:55:07.972Z,29.30
2018-07-25T10:57:40.973Z,29.40
2018-07-25T11:00:10.662Z,29.60
2018-07-25T11:02:39.401Z,29.70
2018-07-25T11:05:09.117Z,29.80
2018-07-25T11:07:37.785Z,29.80
2018-07-25T11:10:07.509Z,29.80
2018-07-25T11:12:38.639Z,29.90
2018-07-25T11:15:07.484Z,29.70
2018-07-25T11:17:36.197Z,29.70
2018-07-25T11:20:06.588Z,29.70
2018-07-25T11:22:35.391Z,29.80
2018-07-25T11:25:04.279Z,29.80
2018-07-25T11:27:32.982Z,29.80
2018-07-25T11:30:02.637Z,29.60
2018-07-25T11:32:31.411Z,29.60
2018-07-25T11:35:00.317Z,29.70
2018-07-25T11:37:30.389Z,30.00
2018-07-25T11:39:59.092Z,30.00
2018-07-25T11:42:27.799Z,30.00
2018-07-25T11:44:56.565Z,30.10
2018-07-25T11:47:25.625Z,30.00
2018-07-25T11:49:54.368Z,30.00
2018-07-25T11:52:23.028Z,30.20
2018-07-25T11:54:53.246Z,30.20
2018-07-25T11:57:22.936Z,30.30
2018-07-25T11:59:52.648Z,30.50
2018-07-25T12:02:22.166Z,30.40
2018-07-25T12:04:51.921Z,30.50
2018-07-25T12:07:23.808Z,30.70
2018-07-25T12:09:57.602Z,30.60
2018-07-25T12:12:26.371Z,30.50
2018-07-25T12:14:55.115Z,30.30
2018-07-25T12:17:23.888Z,30.30
2018-07-25T12:19:52.717Z,29.80
2018-07-25T12:22:22.305Z,29.90
2018-07-25T12:24:51.844Z,29.80
2018-07-25T12:27:21.462Z,29.50
2018-07-25T12:29:50.233Z,29.40
2018-07-25T12:32:18.959Z,29.50
2018-07-25T12:34:47.784Z,29.40
2018-07-25T12:37:16.724Z,29.30
2018-07-25T12:39:45.386Z,29.50
2018-07-25T12:42:14.462Z,29.80
2018-07-25T12:44:43.703Z,30.00
2018-07-25T12:47:13.354Z,30.10
2018-07-25T12:49:42.108Z,30.30
2018-07-25T12:52:12.097Z,30.40
2018-07-25T12:54:40.808Z,30.60
2018-07-25T12:57:14.595Z,30.70
2018-07-25T12:59:43.350Z,30.90
2018-07-25T13:02:12.970Z,31.00
2018-07-25T13:04:42.645Z,31.10
2018-07-25T13:09:41.418Z,31.00
2018-07-25T13:12:11.625Z,30.70
2018-07-25T13:14:40.316Z,30.70
2018-07-25T13:17:09.920Z,30.70
2018-07-25T13:19:38.676Z,30.80
2018-07-25T13:22:07.596Z,30.60
2018-07-25T13:24:36.895Z,30.50
2018-07-25T13:27:05.680Z,30.70
2018-07-25T13:29:34.418Z,30.90
2018-07-25T14:54:02.225Z,31.40
2018-07-25T14:56:31.701Z,29.70
2018-07-25T14:59:01.102Z,29.60
2018-07-25T15:01:30.484Z,29.60
2018-07-25T15:03:59.400Z,29.90
2018-07-25T15:06:34.202Z,30.30
2018-07-25T15:09:06.085Z,30.70
2018-07-25T15:11:34.888Z,30.90
2018-07-25T15:14:04.146Z,31.30
2018-07-25T15:19:09.594Z,31.50
2018-07-25T15:24:07.586Z,31.80
2018-07-25T15:26:37.057Z,31.80
2018-07-25T15:29:05.905Z,31.70
2018-07-25T15:31:34.580Z,31.70
2018-07-25T15:34:03.400Z,31.60
2018-07-25T15:36:40.528Z,31.40
2018-07-25T15:39:13.973Z,31.10
2018-07-25T15:41:43.949Z,30.90
2018-07-25T15:44:13.196Z,30.80
2018-07-25T15:46:45.158Z,30.80
2018-07-25T15:49:14.664Z,30.50
2018-07-25T15:51:43.392Z,30.20
2018-07-25T15:54:16.557Z,29.70
2018-07-25T15:56:45.974Z,29.60
2018-07-25T15:59:14.706Z,29.60
2018-07-25T16:01:43.551Z,29.60
2018-07-25T16:06:40.561Z,29.40
2018-07-25T16:14:07.470Z,29.40
2018-07-25T16:16:36.368Z,29.40
2018-07-25T16:19:05.248Z,29.60
2018-07-25T16:21:34.592Z,29.70
2018-07-25T16:24:03.389Z,29.80
2018-07-25T16:26:32.188Z,29.80
2018-07-25T16:29:02.461Z,29.90
2018-07-25T16:31:31.804Z,30.00
2018-07-25T16:34:00.593Z,30.00
2018-07-25T16:36:29.236Z,29.90
2018-07-25T16:38:57.920Z,30.00
2018-07-25T16:41:26.757Z,30.00
2018-07-25T16:43:56.724Z,29.90
2018-07-25T16:46:26.092Z,29.90
2018-07-25T16:48:55.893Z,29.90
2018-07-25T16:51:24.682Z,29.90
2018-07-25T16:53:53.384Z,29.80
2018-07-25T16:56:22.099Z,29.90
2018-07-25T16:58:50.793Z,29.90
2018-07-25T17:01:20.450Z,29.80
2018-07-25T17:03:49.188Z,29.90
2018-07-25T17:06:19.217Z,29.90
2018-07-25T17:08:47.976Z,29.80
2018-07-25T17:11:21.281Z,29.60
2018-07-25T17:13:50.709Z,29.50
2018-07-25T17:16:19.489Z,29.30
2018-07-25T17:18:48.169Z,29.00
2018-07-25T17:21:16.944Z,28.80
2018-07-25T17:23:45.643Z,28.40
2018-07-25T17:26:14.417Z,28.50
2018-07-25T17:28:48.365Z,28.20
2018-07-25T17:31:17.062Z,28.00
2018-07-25T17:33:45.952Z,27.90
2018-07-25T17:36:14.689Z,27.80
2018-07-25T17:38:45.817Z,27.40
2018-07-25T17:41:14.589Z,27.40
2018-07-25T17:43:43.407Z,27.20
2018-07-25T17:46:12.796Z,27.10
2018-07-25T17:48:42.256Z,26.80
2018-07-25T17:51:12.605Z,26.60
2018-07-25T17:53:42.574Z,26.60
2018-07-25T17:56:12.312Z,26.50
2018-07-25T17:58:51.428Z,26.50
2018-07-25T18:01:20.195Z,26.50
2018-07-25T18:03:48.899Z,26.40
2018-07-25T18:06:17.654Z,26.40
2018-07-25T18:08:48.093Z,26.50
2018-07-25T18:11:17.401Z,26.50
2018-07-25T18:13:51.425Z,26.50
2018-07-25T18:16:20.220Z,26.60
2018-07-25T18:18:48.912Z,26.70
2018-07-25T18:21:17.658Z,26.70
2018-07-25T18:26:14.749Z,27.00
2018-07-25T18:28:48.456Z,27.10
2018-07-25T18:31:18.000Z,27.20
2018-07-25T18:33:47.251Z,27.10
2018-07-25T18:38:45.367Z,27.00
2018-07-25T18:43:43.536Z,26.40
2018-07-25T18:46:12.228Z,26.40
2018-07-25T18:48:41.704Z,26.00
2018-07-25T18:51:11.516Z,25.60
2018-07-25T18:53:40.987Z,25.60
2018-07-25T18:58:39.563Z,24.70
2018-07-25T19:01:08.295Z,24.40
2018-07-25T19:03:37.126Z,24.00
2018-07-25T19:11:03.889Z,23.70
2018-07-25T19:13:33.608Z,23.50
2018-07-25T19:16:03.477Z,23.40
2018-07-25T19:18:33.110Z,23.40
2018-07-25T19:31:01.534Z,23.40
2018-07-25T19:35:59.304Z,23.50
2018-07-25T19:38:29.486Z,23.50
2018-07-25T19:43:30.716Z,23.40
2018-07-25T19:45:59.732Z,23.40
2018-07-25T19:48:29.478Z,23.50
2018-07-25T19:50:58.270Z,23.50
2018-07-25T19:53:27.706Z,23.50
2018-07-25T19:58:25.950Z,23.70
2018-07-25T20:03:23.718Z,23.90
2018-07-25T20:05:52.628Z,23.90
2018-07-25T20:08:23.525Z,23.90
2018-07-25T20:10:52.661Z,23.90
2018-07-25T20:13:22.256Z,23.90
2018-07-25T20:15:58.229Z,23.90
2018-07-25T20:21:05.899Z,23.90
2018-07-25T20:26:04.448Z,23.80
2018-07-25T20:28:33.235Z,23.60
2018-07-25T20:33:30.500Z,23.50
2018-07-25T20:36:00.052Z,23.50
2018-07-25T20:38:34.004Z,23.40
2018-07-25T20:41:03.163Z,23.40
2018-07-25T20:43:32.831Z,23.40
2018-07-25T20:46:02.065Z,23.50
2018-07-25T20:48:31.997Z,23.60
2018-07-25T20:51:01.566Z,23.50
2018-07-25T20:53:31.365Z,23.60
2018-07-25T20:56:00.184Z,23.40
2018-07-25T20:58:29.681Z,23.40
2018-07-25T21:00:58.858Z,23.40
2018-07-25T21:08:29.260Z,23.00
2018-07-25T21:10:58.680Z,22.90
2018-07-25T21:13:31.412Z,22.80
2018-07-25T21:16:00.217Z,22.80
2018-07-25T21:18:29.582Z,22.70
2018-07-25T21:20:58.627Z,22.60
2018-07-25T21:23:27.367Z,22.50
2018-07-25T21:25:56.190Z,22.30
2018-07-25T21:28:25.590Z,22.30
2018-07-25T21:30:54.336Z,22.30
2018-07-25T21:33:23.124Z,22.30
2018-07-25T21:35:52.543Z,22.20
2018-07-25T21:38:22.201Z,22.20
2018-07-25T21:40:51.444Z,22.10
2018-07-25T21:43:20.278Z,22.10
2018-07-25T21:45:49.358Z,22.20
2018-07-25T21:50:46.416Z,22.20
2018-07-25T21:53:15.179Z,22.40
2018-07-25T21:55:43.909Z,22.40
2018-07-25T21:58:12.742Z,22.40
2018-07-25T22:00:51.347Z,22.50
2018-07-25T22:03:20.763Z,22.40
2018-07-25T22:05:49.471Z,22.50
2018-07-25T22:08:19.688Z,22.60
2018-07-25T22:10:48.699Z,22.70
2018-07-25T22:13:17.406Z,22.80
2018-07-25T22:15:46.069Z,22.80
2018-07-25T22:18:14.839Z,22.80
2018-07-25T22:20:43.595Z,22.80
2018-07-25T22:23:16.413Z,22.90
2018-07-25T22:25:45.195Z,22.90
2018-07-25T22:28:13.955Z,22.80
2018-07-25T22:30:42.762Z,22.80
2018-07-25T22:33:12.129Z,22.80
2018-07-25T22:35:41.887Z,22.80
2018-07-25T22:38:11.684Z,22.80
2018-07-25T22:40:40.358Z,22.70
2018-07-25T22:43:10.079Z,22.70
2018-07-25T22:45:38.803Z,22.70
2018-07-25T22:48:07.722Z,22.70
2018-07-25T22:50:36.461Z,22.70
2018-07-25T22:53:05.258Z,22.70
2018-07-25T22:55:34.806Z,22.80
2018-07-25T22:58:04.308Z,22.90
2018-07-25T23:03:03.560Z,23.00
2018-07-25T23:05:33.220Z,23.00
2018-07-25T23:08:02.677Z,23.10
2018-07-25T23:10:32.408Z,23.10
2018-07-25T23:13:02.281Z,23.00
2018-07-25T23:15:31.623Z,23.10
2018-07-25T23:18:01.318Z,23.10
2018-07-25T23:20:35.193Z,23.20
2018-07-25T23:23:04.014Z,23.10
2018-07-25T23:25:32.744Z,23.10
2018-07-25T23:28:02.106Z,23.10
2018-07-25T23:30:31.450Z,23.00
2018-07-25T23:33:00.235Z,23.00
2018-07-25T23:35:30.836Z,23.00
2018-07-25T23:38:00.926Z,23.00
2018-07-25T23:40:30.872Z,23.10
2018-07-25T23:42:59.643Z,23.00
2018-07-25T23:45:28.957Z,22.90
2018-07-25T23:47:57.671Z,22.90
2018-07-25T23:50:26.385Z,22.90
2018-07-25T23:52:55.161Z,23.00
2018-07-25T23:55:23.837Z,23.10
2018-07-25T23:57:52.612Z,23.00
